Time;durP1;ratioP1;P1;durP2;ratioP2;P2;SDS_P1;SDS_P2;PMS_P1;PMS_P2;Temp;Humidity;BMP_temperature;BMP_pressure;BME280_temperature;BME280_humidity;BME280_pressure;Samples;Min_cycle;Max_cycle;Signal;HPM_P1;HPM_P2
2021/08/05 00:02:06;;;;;;;8.10;3.70;;;48.40;13.60;;;;;;5049428;28;20071;-65
2021/08/05 00:04:33;;;;;;;11.60;4.30;;;48.30;14.20;;;;;;5055863;28;20120;-65
2021/08/05 00:06:59;;;;;;;9.85;3.50;;;48.40;21.20;;;;;;5056276;28;20024;-65
2021/08/05 00:09:26;;;;;;;5.75;3.30;;;47.80;15.60;;;;;;5051718;28;20071;-65
2021/08/05 00:11:53;;;;;;;18.35;4.30;;;48.10;14.10;;;;;;5048803;28;20149;-66
2021/08/05 00:14:19;;;;;;;11.95;4.00;;;47.90;13.30;;;;;;5053954;28;20067;-66
2021/08/05 00:16:46;;;;;;;11.10;3.67;;;47.80;13.70;;;;;;5050406;28;20066;-65
2021/08/05 00:19:12;;;;;;;9.35;4.45;;;47.80;13.70;;;;;;5047404;28;20065;-65
2021/08/05 00:21:39;;;;;;;10.20;3.83;;;47.90;13.70;;;;;;5048478;28;20060;-66
2021/08/05 00:24:05;;;;;;;7.55;3.58;;;47.80;13.30;;;;;;5044471;28;20097;-65
2021/08/05 00:26:32;;;;;;;11.98;3.65;;;46.60;17.90;;;;;;5043900;28;20094;-66
2021/08/05 00:28:59;;;;;;;6.50;4.13;;;;;;;;;;5047187;28;20071;-65
2021/08/05 00:31:25;;;;;;;6.88;3.40;;;47.40;45.40;;;;;;5046401;28;20056;-67
2021/08/05 00:33:52;;;;;;;10.32;4.03;;;47.00;46.20;;;;;;5044601;28;20028;-66
2021/08/05 00:36:19;;;;;;;12.25;3.67;;;47.60;14.30;;;;;;5047030;28;20064;-66
2021/08/05 00:38:45;;;;;;;9.05;3.60;;;47.50;14.30;;;;;;5038581;28;20080;-65
2021/08/05 00:41:13;;;;;;;4.85;3.30;;;47.40;15.30;;;;;;5044535;28;20066;-65
2021/08/05 00:43:39;;;;;;;10.00;3.60;;;47.30;14.00;;;;;;5039843;28;20063;-66
2021/08/05 00:46:06;;;;;;;6.07;3.10;;;47.20;14.20;;;;;;5048635;28;20074;-67
2021/08/05 00:48:32;;;;;;;11.18;4.20;;;47.20;14.00;;;;;;5046946;28;20029;-66
2021/08/05 00:50:59;;;;;;;9.30;3.85;;;47.50;48.20;;;;;;5046837;28;20436;-65
2021/08/05 00:53:27;;;;;;;5.93;3.75;;;46.80;24.80;;;;;;5042407;28;20028;-70
2021/08/05 00:55:55;;;;;;;7.53;4.18;;;46.80;14.10;;;;;;5044436;28;20037;-67
2021/08/05 00:58:21;;;;;;;10.40;3.80;;;46.30;35.00;;;;;;5045535;28;20033;-66
2021/08/05 01:00:52;;;;;;;8.05;3.50;;;46.70;15.40;;;;;;5045061;28;20066;-66
2021/08/05 01:03:28;;;;;;;6.05;3.63;;;46.70;29.20;;;;;;5045917;28;20067;-66
2021/08/05 01:06:23;;;;;;;7.57;3.58;;;46.30;28.30;;;;;;5044809;28;20066;-69
2021/08/05 01:09:06;;;;;;;9.25;3.80;;;46.20;27.70;;;;;;5045309;28;20025;-65
2021/08/05 01:11:45;;;;;;;6.07;3.40;;;46.10;21.30;;;;;;5043871;28;20025;-67
2021/08/05 01:14:16;;;;;;;9.20;3.78;;;46.10;25.60;;;;;;5046485;28;20554;-67
2021/08/05 01:16:46;;;;;;;9.18;3.63;;;46.10;29.30;;;;;;5043660;28;20032;-66
2021/08/05 01:19:18;;;;;;;7.80;3.47;;;45.80;24.50;;;;;;5043178;28;20044;-66
2021/08/05 01:21:50;;;;;;;8.13;3.85;;;46.00;15.30;;;;;;5043782;28;20029;-65
2021/08/05 01:24:23;;;;;;;9.98;3.50;;;46.00;15.90;;;;;;5040976;28;20066;-66
2021/08/05 01:26:58;;;;;;;8.27;3.60;;;45.80;16.10;;;;;;5044765;28;20141;-68
2021/08/05 01:29:26;;;;;;;9.02;3.85;;;45.60;16.80;;;;;;5043218;28;20073;-65
2021/08/05 01:31:54;;;;;;;7.00;3.67;;;45.50;16.80;;;;;;5038766;28;20108;-68
2021/08/05 01:34:23;;;;;;;6.20;3.40;;;45.50;15.90;;;;;;5041253;28;20442;-65
2021/08/05 01:36:51;;;;;;;10.43;3.25;;;45.30;15.50;;;;;;5044064;28;20541;-67
2021/08/05 01:39:17;;;;;;;5.75;4.00;;;45.30;16.00;;;;;;5041448;28;20079;-66
2021/08/05 01:41:48;;;;;;;14.02;4.18;;;45.30;15.50;;;;;;5043609;28;20147;-67
2021/08/05 01:44:16;;;;;;;8.95;3.38;;;45.20;16.20;;;;;;5039030;28;20168;-68
2021/08/05 01:46:44;;;;;;;12.32;3.38;;;45.10;16.20;;;;;;5041643;28;20073;-67
2021/08/05 01:49:12;;;;;;;14.18;3.20;;;45.10;16.80;;;;;;5044912;28;20159;-66
2021/08/05 01:51:40;;;;;;;9.57;3.22;;;45.10;16.60;;;;;;5043458;28;20520;-65
2021/08/05 01:54:07;;;;;;;11.43;3.13;;;45.10;16.60;;;;;;5042853;28;20152;-66
2021/08/05 01:56:34;;;;;;;16.05;3.47;;;45.10;16.80;;;;;;5044829;28;20075;-66
2021/08/05 01:59:00;;;;;;;19.60;3.75;;;45.20;16.80;;;;;;5046710;28;20098;-67
2021/08/05 02:01:27;;;;;;;17.80;4.18;;;45.40;16.50;;;;;;5044382;28;20066;-67
2021/08/05 02:04:21;;;;;;;19.88;3.60;;;45.50;16.50;;;;;;5047215;28;20102;-68
2021/08/05 02:07:16;;;;;;;17.60;4.15;;;45.40;16.80;;;;;;5048426;28;20207;-66
2021/08/05 02:10:11;;;;;;;28.65;4.13;;;45.10;17.10;;;;;;5020141;28;20542;-69
2021/08/05 02:12:47;;;;;;;27.57;4.10;;;44.90;17.40;;;;;;5044566;28;20454;-67
2021/08/05 02:15:17;;;;;;;12.20;3.90;;;44.80;17.60;;;;;;5043248;28;20071;-69
2021/08/05 02:17:44;;;;;;;17.20;3.58;;;44.70;17.80;;;;;;5042402;28;20096;-68
2021/08/05 02:20:12;;;;;;;11.48;3.25;;;44.50;17.70;;;;;;5045317;28;20066;-67
2021/08/05 02:22:42;;;;;;;18.20;3.50;;;44.50;17.70;;;;;;5043539;28;20115;-67
2021/08/05 02:25:11;;;;;;;15.32;3.58;;;44.40;17.90;;;;;;5041814;28;20074;-67
2021/08/05 02:27:39;;;;;;;11.65;3.42;;;44.40;18.40;;;;;;5045415;28;20450;-67
2021/08/05 02:30:08;;;;;;;16.50;3.70;;;44.20;19.50;;;;;;5043526;28;20153;-67
2021/08/05 02:32:36;;;;;;;14.70;3.47;;;44.20;20.60;;;;;;5043805;28;20108;-68
2021/08/05 02:35:06;;;;;;;25.67;3.53;;;44.00;23.10;;;;;;5042134;28;20080;-67
2021/08/05 02:37:33;;;;;;;36.92;3.72;;;44.00;24.10;;;;;;5040256;28;20082;-68
2021/08/05 02:40:00;;;;;;;20.67;3.40;;;43.80;24.70;;;;;;5044457;28;20085;-67
2021/08/05 02:42:27;;;;;;;24.33;3.50;;;43.80;25.50;;;;;;5040138;28;20078;-68
2021/08/05 02:44:55;;;;;;;20.35;4.07;;;43.60;26.30;;;;;;5043368;28;20127;-68
2021/08/05 02:47:21;;;;;;;21.17;3.97;;;43.60;26.60;;;;;;5041397;28;20159;-68
2021/08/05 02:49:53;;;;;;;21.27;4.15;;;43.50;26.80;;;;;;5044475;28;20106;-66
2021/08/05 02:52:21;;;;;;;19.02;3.40;;;43.30;26.70;;;;;;5043559;28;20077;-67
2021/08/05 02:54:48;;;;;;;23.27;3.50;;;43.30;26.70;;;;;;5041593;28;20416;-67
2021/08/05 02:57:15;;;;;;;15.18;3.83;;;43.20;26.80;;;;;;5046462;28;20098;-67
2021/08/05 02:59:42;;;;;;;12.65;3.38;;;43.10;27.20;;;;;;5049247;28;20076;-68
2021/08/05 03:02:09;;;;;;;24.52;4.05;;;43.00;27.40;;;;;;5047896;28;20077;-69
2021/08/05 03:04:36;;;;;;;24.45;3.60;;;43.00;27.60;;;;;;5047883;28;21269;-66
2021/08/05 03:07:03;;;;;;;19.50;4.20;;;42.90;28.50;;;;;;5046751;28;20108;-68
2021/08/05 03:09:29;;;;;;;25.58;4.65;;;42.80;27.70;;;;;;5047820;28;20535;-66
2021/08/05 03:11:56;;;;;;;23.08;4.68;;;42.80;27.80;;;;;;5045154;28;20078;-68
2021/08/05 03:14:22;;;;;;;21.02;4.20;;;42.70;27.90;;;;;;5048639;28;20426;-67
2021/08/05 03:16:49;;;;;;;28.10;5.22;;;42.70;27.90;;;;;;5044301;28;20078;-67
2021/08/05 03:19:15;;;;;;;30.70;4.47;;;42.60;28.00;;;;;;5046869;28;20092;-67
2021/08/05 03:21:42;;;;;;;45.38;5.57;;;42.60;28.10;;;;;;5042128;28;20073;-68
2021/08/05 03:24:08;;;;;;;23.55;3.67;;;42.50;28.00;;;;;;5048407;28;20171;-67
2021/08/05 03:26:35;;;;;;;21.23;4.80;;;42.40;27.50;;;;;;5043364;28;20085;-68
2021/08/05 03:29:01;;;;;;;53.70;6.22;;;42.40;25.10;;;;;;5047858;28;20081;-68
2021/08/05 03:31:28;;;;;;;34.05;6.57;;;42.40;21.80;;;;;;5045343;28;20119;-67
2021/08/05 03:33:54;;;;;;;39.08;6.13;;;42.40;20.10;;;;;;5048926;28;20177;-67
2021/08/05 03:36:21;;;;;;;26.73;7.10;;;42.50;19.80;;;;;;5049386;28;20077;-70
2021/08/05 03:38:47;;;;;;;28.95;6.25;;;42.50;19.30;;;;;;5047475;28;20505;-68
2021/08/05 03:41:14;;;;;;;23.83;5.53;;;42.60;18.90;;;;;;5044991;28;20077;-67
2021/08/05 03:43:40;;;;;;;26.38;6.90;;;42.60;19.10;;;;;;5047909;28;20501;-67
2021/08/05 03:46:07;;;;;;;26.40;7.38;;;42.50;18.80;;;;;;5046394;28;20078;-66
2021/08/05 03:48:33;;;;;;;47.92;6.00;;;42.50;33.80;;;;;;5045695;28;20041;-66
2021/08/05 03:51:00;;;;;;;25.17;5.75;;;42.50;18.00;;;;;;5041685;28;20037;-68
2021/08/05 03:53:26;;;;;;;26.98;4.85;;;42.30;20.60;;;;;;5046034;28;20073;-69
2021/08/05 03:55:52;;;;;;;31.52;5.20;;;42.30;26.30;;;;;;5049319;28;20502;-67
2021/08/05 03:58:19;;;;;;;28.17;5.05;;;42.40;18.80;;;;;;5052986;28;20028;-68
2021/08/05 04:00:46;;;;;;;21.67;5.43;;;42.30;18.70;;;;;;5050253;28;20077;-69
2021/08/05 04:03:12;;;;;;;24.70;4.20;;;42.30;19.00;;;;;;5051879;28;20085;-68
2021/08/05 04:05:39;;;;;;;25.00;5.60;;;42.20;18.90;;;;;;5049320;28;20105;-68
2021/08/05 04:08:05;;;;;;;30.17;5.47;;;42.20;18.80;;;;;;5047390;28;20164;-67
2021/08/05 04:10:32;;;;;;;24.05;4.68;;;42.10;18.90;;;;;;5046985;28;20066;-68
2021/08/05 04:12:59;;;;;;;26.30;4.93;;;42.10;18.90;;;;;;5045698;28;20454;-68
2021/08/05 04:15:25;;;;;;;36.83;5.07;;;42.00;18.90;;;;;;5042490;28;20585;-68
2021/08/05 04:17:52;;;;;;;41.05;5.78;;;41.90;18.90;;;;;;5047675;28;20163;-68
2021/08/05 04:20:21;;;;;;;51.47;5.72;;;41.90;18.90;;;;;;5044659;28;20085;-67
2021/08/05 04:22:49;;;;;;;36.50;5.43;;;41.90;19.00;;;;;;5046379;28;20073;-68
2021/08/05 04:25:16;;;;;;;38.00;5.35;;;41.80;18.90;;;;;;5043917;28;20078;-68
2021/08/05 04:27:43;;;;;;;29.60;5.47;;;41.90;18.90;;;;;;5043708;28;20078;-67
2021/08/05 04:30:12;;;;;;;32.28;4.57;;;41.80;19.00;;;;;;5045016;28;20081;-69
2021/08/05 04:32:40;;;;;;;31.10;3.97;;;41.80;19.00;;;;;;5044456;28;20080;-68
2021/08/05 04:35:09;;;;;;;26.50;4.35;;;41.70;19.00;;;;;;5037065;28;20160;-69
2021/08/05 04:37:45;;;;;;;15.45;3.83;;;41.70;19.20;;;;;;5043319;28;20176;-69
2021/08/05 04:40:12;;;;;;;15.55;3.75;;;41.60;19.20;;;;;;5040373;28;20084;-68
2021/08/05 04:42:39;;;;;;;21.42;3.15;;;41.60;19.30;;;;;;5045983;28;20077;-68
2021/08/05 04:45:06;;;;;;;26.80;4.18;;;41.40;19.30;;;;;;5043443;28;20081;-67
2021/08/05 04:47:32;;;;;;;13.18;3.30;;;41.40;19.30;;;;;;5026582;28;20169;-68
2021/08/05 04:49:59;;;;;;;21.23;3.50;;;41.40;19.40;;;;;;5047391;28;20073;-69
2021/08/05 04:52:26;;;;;;;22.40;3.28;;;41.30;19.60;;;;;;5043765;28;20592;-68
2021/08/05 04:54:52;;;;;;;24.13;3.50;;;41.30;19.40;;;;;;5045109;28;20070;-67
2021/08/05 04:57:19;;;;;;;11.65;3.53;;;41.20;19.40;;;;;;5044942;28;20093;-67
2021/08/05 04:59:45;;;;;;;18.38;4.78;;;41.20;19.40;;;;;;5040314;28;20581;-68
2021/08/05 05:02:11;;;;;;;21.23;5.47;;;41.10;19.60;;;;;;5046168;28;20082;-69
2021/08/05 05:04:38;;;;;;;20.27;4.82;;;41.10;19.70;;;;;;5026905;28;20152;-67
2021/08/05 05:07:04;;;;;;;20.05;5.00;;;41.00;19.70;;;;;;5045720;28;20124;-69
2021/08/05 05:09:31;;;;;;;22.13;5.10;;;40.90;19.70;;;;;;5045029;28;20430;-68
2021/08/05 05:11:58;;;;;;;17.63;5.95;;;40.90;19.20;;;;;;5046575;28;20048;-67
2021/08/05 05:14:26;;;;;;;21.40;4.60;;;40.90;19.70;;;;;;5045595;28;20066;-68
2021/08/05 05:16:54;;;;;;;14.88;4.20;;;40.80;19.60;;;;;;5044337;28;20081;-67
2021/08/05 05:19:21;;;;;;;24.33;4.40;;;40.70;19.90;;;;;;5045294;28;20110;-68
2021/08/05 05:21:47;;;;;;;12.70;3.53;;;40.70;19.80;;;;;;5042683;28;20076;-67
2021/08/05 05:24:13;;;;;;;10.57;3.00;;;40.70;19.90;;;;;;5045920;28;20074;-67
2021/08/05 05:26:40;;;;;;;13.10;3.10;;;40.60;20.00;;;;;;5043872;28;20145;-67
2021/08/05 05:29:06;;;;;;;8.77;2.42;;;40.50;20.10;;;;;;5042518;28;20557;-69
2021/08/05 05:31:33;;;;;;;10.35;2.90;;;40.40;21.40;;;;;;5040098;28;20106;-69
2021/08/05 05:33:59;;;;;;;9.38;2.80;;;40.30;37.80;;;;;;5043349;28;20026;-68
2021/08/05 05:36:26;;;;;;;9.27;3.20;;;40.30;20.00;;;;;;5044432;28;20141;-68
2021/08/05 05:38:52;;;;;;;8.55;2.67;;;40.30;20.80;;;;;;5040182;28;20097;-68
2021/08/05 05:41:19;;;;;;;9.70;2.95;;;40.20;20.50;;;;;;5043010;28;20074;-68
2021/08/05 05:43:46;;;;;;;6.93;2.80;;;40.10;20.70;;;;;;5036460;28;20123;-67
2021/08/05 05:46:15;;;;;;;12.52;2.85;;;40.10;20.50;;;;;;5038701;28;20499;-68
2021/08/05 05:48:42;;;;;;;13.40;3.25;;;40.00;20.90;;;;;;5042260;28;20073;-68
2021/08/05 05:51:08;;;;;;;5.03;2.40;;;39.90;20.60;;;;;;5044582;28;20153;-68
2021/08/05 05:53:35;;;;;;;7.10;2.88;;;40.00;21.20;;;;;;5043609;28;20078;-65
2021/08/05 05:56:02;;;;;;;9.48;3.17;;;39.70;23.70;;;;;;5044157;28;20103;-71
2021/08/05 05:58:28;;;;;;;14.77;3.03;;;39.60;36.20;;;;;;5041013;28;20037;-66
2021/08/05 06:00:56;;;;;;;25.60;4.22;;;39.90;42.20;;;;;;5042581;28;20052;-70
2021/08/05 06:03:23;;;;;;;39.65;5.35;;;39.50;25.30;;;;;;5038193;28;20677;-66
2021/08/05 06:05:49;;;;;;;36.22;4.97;;;39.30;29.40;;;;;;5038711;28;20129;-65
2021/08/05 06:08:16;;;;;;;22.73;4.68;;;38.60;51.90;;;;;;5041995;28;20131;-66
2021/08/05 06:10:42;;;;;;;27.60;5.35;;;39.00;29.50;;;;;;5043821;28;20082;-64
2021/08/05 06:13:09;;;;;;;30.05;5.55;;;38.90;30.00;;;;;;5044919;28;20093;-65
2021/08/05 06:15:35;;;;;;;23.77;6.28;;;38.80;30.40;;;;;;5040026;28;20511;-65
2021/08/05 06:18:06;;;;;;;27.08;6.93;;;38.60;33.30;;;;;;5042754;28;20798;-65
2021/08/05 06:20:32;;;;;;;28.08;7.50;;;38.30;36.20;;;;;;5044956;28;20069;-67
2021/08/05 06:22:59;;;;;;;24.13;7.97;;;37.50;66.30;;;;;;5041320;28;20080;-66
2021/08/05 06:25:26;;;;;;;25.70;7.88;;;37.80;40.20;;;;;;5043573;28;20481;-64
2021/08/05 06:27:52;;;;;;;32.90;8.40;;;37.60;41.50;;;;;;5042767;28;20073;-64
2021/08/05 06:30:20;;;;;;;25.52;7.28;;;37.60;42.10;;;;;;5041363;28;20128;-65
2021/08/05 06:32:49;;;;;;;36.60;8.85;;;37.50;42.90;;;;;;5042232;28;20157;-64
2021/08/05 06:35:15;;;;;;;33.63;8.70;;;37.20;43.80;;;;;;5041692;28;20441;-64
2021/08/05 06:37:42;;;;;;;31.73;8.15;;;37.10;44.20;;;;;;5037397;28;20093;-67
2021/08/05 06:40:09;;;;;;;26.17;7.53;;;37.10;44.90;;;;;;5038580;28;20078;-65
2021/08/05 06:42:36;;;;;;;27.02;7.28;;;37.00;45.50;;;;;;5037445;28;20073;-66
2021/08/05 06:45:05;;;;;;;30.88;6.97;;;36.80;46.20;;;;;;5043645;28;20109;-65
2021/08/05 06:47:33;;;;;;;44.00;8.32;;;36.70;47.30;;;;;;5045766;28;20074;-65
2021/08/05 06:50:00;;;;;;;26.63;7.30;;;36.60;48.30;;;;;;5044384;28;20171;-64
2021/08/05 06:52:26;;;;;;;30.15;6.32;;;36.50;49.00;;;;;;5043067;28;20078;-64
2021/08/05 06:54:53;;;;;;;30.63;7.38;;;36.40;49.50;;;;;;5043078;28;20077;-65
2021/08/05 06:57:20;;;;;;;32.75;7.57;;;36.40;49.30;;;;;;5041170;28;20452;-64
2021/08/05 06:59:46;;;;;;;35.97;8.30;;;36.30;49.30;;;;;;5039914;28;20115;-64
2021/08/05 07:02:13;;;;;;;31.80;8.35;;;36.40;49.30;;;;;;5036577;28;20066;-65
2021/08/05 07:04:39;;;;;;;28.50;7.65;;;36.40;49.30;;;;;;5042049;28;20105;-65
2021/08/05 07:07:06;;;;;;;22.17;5.90;;;36.40;49.50;;;;;;5045818;28;20074;-68
2021/08/05 07:09:32;;;;;;;20.42;5.10;;;36.40;49.70;;;;;;5043245;28;20104;-65
2021/08/05 07:11:59;;;;;;;22.40;5.35;;;36.30;50.00;;;;;;5031001;28;20536;-64
2021/08/05 07:14:25;;;;;;;24.85;5.05;;;36.00;50.60;;;;;;5040783;28;20161;-64
2021/08/05 07:16:52;;;;;;;24.88;5.32;;;36.00;50.90;;;;;;5043704;28;20077;-65
2021/08/05 07:19:19;;;;;;;22.90;5.35;;;35.80;51.60;;;;;;5043191;28;20090;-65
2021/08/05 07:21:45;;;;;;;26.13;6.68;;;35.80;52.20;;;;;;5027569;28;20073;-66
2021/08/05 07:24:13;;;;;;;27.50;6.65;;;35.80;52.80;;;;;;5038477;28;20441;-66
2021/08/05 07:26:41;;;;;;;19.88;5.68;;;35.80;53.70;;;;;;5040505;28;20105;-67
2021/08/05 07:29:07;;;;;;;27.63;7.28;;;35.70;54.60;;;;;;5040613;28;20441;-65
2021/08/05 07:31:34;;;;;;;21.92;7.03;;;35.60;55.70;;;;;;5038529;28;20113;-65
2021/08/05 07:34:01;;;;;;;38.00;7.82;;;35.40;56.70;;;;;;5041749;28;20669;-65
2021/08/05 07:36:28;;;;;;;31.73;7.78;;;35.40;57.00;;;;;;5040003;28;20105;-64
2021/08/05 07:38:54;;;;;;;29.10;6.72;;;35.40;57.70;;;;;;5043535;28;20097;-65
2021/08/05 07:41:21;;;;;;;29.33;6.65;;;35.50;57.90;;;;;;5047576;28;20105;-66
2021/08/05 07:43:47;;;;;;;25.50;6.13;;;35.60;58.40;;;;;;5047517;28;20074;-65
2021/08/05 07:46:14;;;;;;;22.55;5.22;;;35.50;58.90;;;;;;5043191;28;20069;-66
2021/08/05 07:48:41;;;;;;;18.02;4.55;;;35.50;59.70;;;;;;5045751;28;20077;-64
2021/08/05 07:51:07;;;;;;;19.02;5.03;;;35.20;60.90;;;;;;5046080;28;20065;-64
2021/08/05 07:53:34;;;;;;;27.92;5.13;;;35.20;60.80;;;;;;5050480;28;20077;-65
2021/08/05 07:56:01;;;;;;;21.98;5.47;;;35.20;61.90;;;;;;5049061;28;21538;-65
2021/08/05 07:58:28;;;;;;;20.48;5.40;;;35.20;62.20;;;;;;5052167;28;20132;-65
2021/08/05 08:00:54;;;;;;;27.40;5.38;;;35.20;62.50;;;;;;5045533;28;20081;-66
2021/08/05 08:03:21;;;;;;;23.73;5.35;;;35.10;63.30;;;;;;5045514;28;20078;-65
2021/08/05 08:05:47;;;;;;;18.92;4.80;;;35.10;63.60;;;;;;5042432;28;20193;-65
2021/08/05 08:08:16;;;;;;;20.65;5.10;;;35.10;63.80;;;;;;5048721;28;20164;-65
2021/08/05 08:10:43;;;;;;;19.25;4.50;;;35.10;64.00;;;;;;5040431;28;20074;-65
2021/08/05 08:13:10;;;;;;;15.52;4.95;;;35.00;64.50;;;;;;5046327;28;20227;-65
2021/08/05 08:15:36;;;;;;;15.95;4.53;;;34.80;65.50;;;;;;5044516;28;20533;-66
2021/08/05 08:18:03;;;;;;;20.42;5.15;;;34.70;66.50;;;;;;5042867;28;20136;-64
2021/08/05 08:20:31;;;;;;;19.08;4.50;;;34.70;66.60;;;;;;5041074;28;20066;-66
2021/08/05 08:22:58;;;;;;;23.58;4.95;;;34.80;66.40;;;;;;5042210;28;21588;-66
2021/08/05 08:25:25;;;;;;;24.60;5.53;;;34.80;66.60;;;;;;5042243;28;20081;-64
2021/08/05 08:27:51;;;;;;;18.80;5.22;;;34.90;66.90;;;;;;5047993;28;20084;-65
2021/08/05 08:30:18;;;;;;;23.45;5.50;;;34.90;66.80;;;;;;5050905;28;20204;-64
2021/08/05 08:32:47;;;;;;;16.58;5.40;;;34.80;67.20;;;;;;5050680;28;20107;-65
2021/08/05 08:35:13;;;;;;;20.67;5.65;;;34.70;68.20;;;;;;5048364;28;20164;-65
2021/08/05 08:37:40;;;;;;;23.92;5.47;;;34.60;69.10;;;;;;5045310;28;20102;-64
2021/08/05 08:40:07;;;;;;;19.67;5.30;;;34.50;70.00;;;;;;5043662;28;20156;-65
2021/08/05 08:42:34;;;;;;;20.25;5.05;;;34.50;70.30;;;;;;5042686;28;20070;-65
2021/08/05 08:45:03;;;;;;;20.83;5.32;;;34.60;70.30;;;;;;5043832;28;20082;-66
2021/08/05 08:47:32;;;;;;;22.90;5.43;;;34.70;70.40;;;;;;5043693;28;20073;-65
2021/08/05 08:49:59;;;;;;;19.83;5.25;;;34.60;70.70;;;;;;5042915;28;20515;-66
2021/08/05 08:52:27;;;;;;;25.08;5.40;;;34.60;71.30;;;;;;5044927;28;20096;-65
2021/08/05 08:54:55;;;;;;;22.17;5.22;;;34.60;71.50;;;;;;5042125;28;20531;-66
2021/08/05 08:57:26;;;;;;;25.67;5.47;;;34.60;71.70;;;;;;5046428;28;20077;-66
2021/08/05 08:59:53;;;;;;;22.70;5.78;;;34.60;71.80;;;;;;5047033;28;20076;-65
2021/08/05 09:02:20;;;;;;;20.63;4.38;;;34.60;72.20;;;;;;5045310;28;20546;-65
2021/08/05 09:04:47;;;;;;;22.25;4.82;;;34.50;72.90;;;;;;5042580;28;20121;-65
2021/08/05 09:07:13;;;;;;;19.08;4.47;;;34.40;73.30;;;;;;5043928;28;20078;-65
2021/08/05 09:09:40;;;;;;;23.90;5.70;;;34.40;73.70;;;;;;5043555;28;20065;-66
2021/08/05 09:12:13;;;;;;;32.28;6.60;;;34.30;74.50;;;;;;5045632;28;20103;-65
2021/08/05 09:14:51;;;;;;;22.10;5.78;;;34.30;74.60;;;;;;5042332;28;20074;-64
2021/08/05 09:17:28;;;;;;;20.77;6.00;;;34.20;75.40;;;;;;5039488;28;20192;-64
2021/08/05 09:19:59;;;;;;;25.15;6.60;;;34.20;76.30;;;;;;5042561;28;20115;-65
2021/08/05 09:22:36;;;;;;;30.38;6.47;;;34.20;76.90;;;;;;5042380;28;20407;-64
2021/08/05 09:25:32;;;;;;;32.53;8.07;;;34.20;77.00;;;;;;5041292;28;20495;-66
2021/08/05 09:28:14;;;;;;;37.03;9.65;;;34.10;77.60;;;;;;5031823;28;20086;-65
2021/08/05 09:30:42;;;;;;;36.95;10.00;;;34.10;78.70;;;;;;5045161;28;20084;-66
2021/08/05 09:33:15;;;;;;;35.78;9.90;;;34.10;78.50;;;;;;5045938;28;20078;-65
2021/08/05 09:35:44;;;;;;;35.38;11.05;;;34.00;78.40;;;;;;5041046;28;20168;-65
2021/08/05 09:38:20;;;;;;;32.47;10.13;;;33.90;79.20;;;;;;5045881;28;20056;-65
2021/08/05 09:40:54;;;;;;;30.95;12.10;;;33.80;80.10;;;;;;5042639;28;20127;-65
2021/08/05 09:43:25;;;;;;;37.38;13.88;;;33.70;81.50;;;;;;5039360;28;20093;-66
2021/08/05 09:45:51;;;;;;;34.05;12.95;;;33.80;81.50;;;;;;5042521;28;20089;-65
2021/08/05 09:48:42;;;;;;;31.63;12.15;;;33.80;81.90;;;;;;5041983;28;20443;-67
2021/08/05 09:51:15;;;;;;;35.78;8.98;;;33.80;81.90;;;;;;5043616;28;20081;-65
2021/08/05 09:54:01;;;;;;;27.55;8.23;;;33.60;82.20;;;;;;5042732;28;20119;-66
2021/08/05 09:56:29;;;;;;;22.92;6.50;;;33.70;82.80;;;;;;5039892;28;20073;-65
2021/08/05 09:59:05;;;;;;;27.45;5.35;;;33.60;83.70;;;;;;5042644;28;20155;-66
2021/08/05 10:01:31;;;;;;;17.93;4.73;;;33.50;84.90;;;;;;5041577;28;20073;-65
2021/08/05 10:03:58;;;;;;;24.92;5.30;;;33.50;84.50;;;;;;5039610;28;20145;-65
2021/08/05 10:06:24;;;;;;;24.52;5.25;;;33.40;83.90;;;;;;5043274;28;20404;-66
2021/08/05 10:08:54;;;;;;;24.95;5.50;;;33.30;84.70;;;;;;5045934;28;20083;-67
2021/08/05 10:11:37;;;;;;;19.60;4.80;;;33.20;85.50;;;;;;5042703;28;20139;-66
2021/08/05 10:14:22;;;;;;;19.50;4.95;;;33.20;85.10;;;;;;5043960;28;20080;-65
2021/08/05 10:16:51;;;;;;;23.00;6.97;;;33.10;85.00;;;;;;5040831;28;20165;-66
2021/08/05 10:19:19;;;;;;;18.90;6.80;;;33.00;85.30;;;;;;5044600;28;20093;-66
2021/08/05 10:21:50;;;;;;;27.75;5.97;;;33.00;85.80;;;;;;5042936;28;20073;-66
2021/08/05 10:24:17;;;;;;;22.60;5.57;;;32.90;86.70;;;;;;5043295;28;20089;-66
2021/08/05 10:26:44;;;;;;;18.02;5.40;;;32.90;86.70;;;;;;5040698;28;20078;-65
2021/08/05 10:29:16;;;;;;;18.35;5.25;;;32.80;87.50;;;;;;5041351;28;20081;-66
2021/08/05 10:31:44;;;;;;;24.40;4.90;;;32.80;87.90;;;;;;5042415;28;20074;-66
2021/08/05 10:34:15;;;;;;;20.48;5.40;;;32.70;88.00;;;;;;5042721;28;20531;-66
2021/08/05 10:36:42;;;;;;;20.50;4.55;;;32.70;88.30;;;;;;5039775;28;20073;-66
2021/08/05 10:39:09;;;;;;;26.27;5.18;;;32.80;87.70;;;;;;5042318;28;20126;-67
2021/08/05 10:41:36;;;;;;;18.52;4.70;;;32.60;88.40;;;;;;5044231;28;20078;-66
2021/08/05 10:44:03;;;;;;;21.17;4.95;;;32.60;88.70;;;;;;5042167;28;20074;-66
2021/08/05 10:46:33;;;;;;;22.55;4.68;;;32.70;88.30;;;;;;5044134;28;20082;-66
2021/08/05 10:49:04;;;;;;;20.75;4.13;;;32.60;88.40;;;;;;5040302;28;20074;-66
2021/08/05 10:51:40;;;;;;;25.77;5.35;;;32.70;88.50;;;;;;5041554;28;20070;-66
2021/08/05 10:54:08;;;;;;;24.60;5.05;;;32.60;88.50;;;;;;5042065;28;20419;-66
2021/08/05 10:56:35;;;;;;;18.85;4.18;;;32.60;88.70;;;;;;5044447;28;20081;-66
2021/08/05 10:59:10;;;;;;;20.73;4.32;;;32.50;89.40;;;;;;5047582;28;20151;-66
2021/08/05 11:01:58;;;;;;;21.92;4.63;;;32.50;90.10;;;;;;5041164;28;20065;-65
2021/08/05 11:04:33;;;;;;;24.67;4.80;;;32.50;90.30;;;;;;5043587;28;20593;-66
2021/08/05 11:07:22;;;;;;;21.13;4.43;;;32.50;90.90;;;;;;5043470;28;20073;-66
2021/08/05 11:09:49;;;;;;;19.05;4.70;;;32.30;91.70;;;;;;5041465;28;20065;-65
2021/08/05 11:12:39;;;;;;;21.83;4.57;;;32.30;92.30;;;;;;5043118;28;20074;-66
2021/08/05 11:15:26;;;;;;;17.02;4.68;;;32.30;92.60;;;;;;5042396;28;20080;-66
2021/08/05 11:18:18;;;;;;;;;;;32.30;92.90;;;;;;5042100;28;20180;-65
2021/08/05 11:20:46;;;;;;;22.27;5.68;;;32.30;93.50;;;;;;5046027;28;20022;-66
2021/08/05 11:23:45;;;;;;;21.80;5.07;;;32.30;93.90;;;;;;5047359;28;20531;-65
2021/08/05 11:26:12;;;;;;;19.05;4.68;;;32.20;94.40;;;;;;5042458;28;20166;-67
2021/08/05 11:28:41;;;;;;;24.08;5.82;;;32.30;94.60;;;;;;5049113;28;20074;-66
2021/08/05 11:31:10;;;;;;;26.05;5.63;;;32.20;95.40;;;;;;5040293;28;20462;-66
2021/08/05 11:33:37;;;;;;;26.13;5.07;;;32.10;96.80;;;;;;5047152;28;20082;-67
2021/08/05 11:36:16;;;;;;;19.73;4.72;;;32.00;97.60;;;;;;5045712;28;20527;-66
2021/08/05 11:39:22;;;;;;;19.20;4.90;;;32.10;98.00;;;;;;5046873;28;20092;-67
2021/08/05 11:41:56;;;;;;;28.42;5.63;;;32.10;98.00;;;;;;5043625;28;20806;-66
2021/08/05 11:44:41;;;;;;;19.38;5.30;;;32.10;98.30;;;;;;5046705;28;20077;-67
2021/08/05 11:47:15;;;;;;;23.38;5.28;;;32.10;98.70;;;;;;5045059;28;20518;-66
2021/08/05 11:49:48;;;;;;;23.40;5.55;;;32.00;99.90;;;;;;5044352;28;20070;-66
2021/08/05 11:52:18;;;;;;;23.50;5.63;;;32.00;99.90;;;;;;5043480;28;20063;-66
2021/08/05 11:55:07;;;;;;;19.73;5.07;;;32.00;99.90;;;;;;5047825;28;20077;-66
2021/08/05 11:57:44;;;;;;;20.30;4.88;;;32.00;99.90;;;;;;5045447;28;20573;-65
2021/08/05 12:00:16;;;;;;;24.10;5.25;;;32.00;99.90;;;;;;5045956;28;20215;-64
2021/08/05 12:02:44;;;;;;;23.23;5.03;;;32.00;99.90;;;;;;5041913;28;20070;-66
2021/08/05 12:05:12;;;;;;;24.25;5.50;;;31.90;99.90;;;;;;5044471;28;20117;-66
2021/08/05 12:07:50;;;;;;;31.52;5.95;;;31.90;99.90;;;;;;5044208;28;20081;-66
2021/08/05 12:10:21;;;;;;;25.95;5.70;;;31.80;99.90;;;;;;5055202;28;20474;-66
2021/08/05 12:12:54;;;;;;;21.88;5.25;;;31.90;99.90;;;;;;5056150;28;20119;-64
2021/08/05 12:15:36;;;;;;;21.55;5.63;;;31.80;99.90;;;;;;5057042;28;20070;-66
2021/08/05 12:18:11;;;;;;;26.00;5.75;;;31.80;99.90;;;;;;5048777;28;20094;-67
2021/08/05 12:20:42;;;;;;;25.38;5.80;;;31.90;99.90;;;;;;5048213;28;20485;-65
2021/08/05 12:23:24;;;;;;;27.58;6.40;;;31.80;99.90;;;;;;5044841;28;20523;-66
2021/08/05 12:26:12;;;;;;;30.63;6.45;;;31.90;99.90;;;;;;5045475;28;20085;-66
2021/08/05 12:28:42;;;;;;;27.02;6.18;;;31.90;99.90;;;;;;5043474;28;20189;-66
2021/08/05 12:31:15;;;;;;;31.77;6.00;;;32.00;99.90;;;;;;5044410;28;20101;-63
2021/08/05 12:33:43;;;;;;;27.08;6.22;;;31.90;99.90;;;;;;5041787;28;20149;-65
2021/08/05 12:36:14;;;;;;;27.08;5.90;;;31.90;99.90;;;;;;5046140;28;20081;-67
2021/08/05 12:38:56;;;;;;;21.90;6.00;;;31.80;99.90;;;;;;5046240;28;20184;-65
2021/08/05 12:41:52;;;;;;;25.33;6.32;;;31.70;99.90;;;;;;5040015;28;20074;-66
2021/08/05 12:44:24;;;;;;;28.58;6.68;;;31.70;99.90;;;;;;5030060;28;20088;-65
2021/08/05 12:46:53;;;;;;;34.03;7.18;;;31.80;99.90;;;;;;5040123;28;20519;-66
2021/08/05 12:49:27;;;;;;;28.33;6.18;;;31.80;99.90;;;;;;5042023;28;20081;-65
2021/08/05 12:52:00;;;;;;;21.75;6.25;;;31.80;99.90;;;;;;5043770;28;20097;-66